sensor_id;sensor_type;location;lat;lon;timestamp;pressure;altitude;pressure_sealevel;temperature;humidity
73383;BME280;61600;48.126;11.542;2023-02-13T00:02:16;97474.19;;;5.11;70.67
73383;BME280;61600;48.126;11.542;2023-02-13T00:04:41;97475.41;;;5.02;70.46
73383;BME280;61600;48.126;11.542;2023-02-13T00:07:08;97468.59;;;5.06;71.24
73383;BME280;61600;48.126;11.542;2023-02-13T00:09:36;97460.91;;;5.16;70.92
73383;BME280;61600;48.126;11.542;2023-02-13T00:12:03;97470.44;;;5.12;71.02
73383;BME280;61600;48.126;11.542;2023-02-13T00:14:29;97467.75;;;4.92;70.34
73383;BME280;61600;48.126;11.542;2023-02-13T00:16:55;97464.81;;;5.00;72.81
73383;BME280;61600;48.126;11.542;2023-02-13T00:19:21;97468.97;;;4.96;72.05
73383;BME280;61600;48.126;11.542;2023-02-13T00:21:46;97461.53;;;5.05;71.79
73383;BME280;61600;48.126;11.542;2023-02-13T00:24:12;97461.28;;;5.00;72.09
73383;BME280;61600;48.126;11.542;2023-02-13T00:26:38;97461.72;;;4.97;72.12
73383;BME280;61600;48.126;11.542;2023-02-13T00:29:04;97448.66;;;5.07;72.49
73383;BME280;61600;48.126;11.542;2023-02-13T00:31:30;97449.47;;;5.21;72.17
73383;BME280;61600;48.126;11.542;2023-02-13T00:33:56;97448.66;;;5.33;71.32
73383;BME280;61600;48.126;11.542;2023-02-13T00:36:22;97448.88;;;5.25;70.89
73383;BME280;61600;48.126;11.542;2023-02-13T00:38:48;97445.34;;;5.31;71.13
73383;BME280;61600;48.126;11.542;2023-02-13T00:41:14;97444.31;;;5.32;70.65
73383;BME280;61600;48.126;11.542;2023-02-13T00:43:42;97443.69;;;5.17;70.96
73383;BME280;61600;48.126;11.542;2023-02-13T00:46:08;97438.72;;;5.27;72.00
73383;BME280;61600;48.126;11.542;2023-02-13T00:48:35;97435.38;;;5.32;71.12
73383;BME280;61600;48.126;11.542;2023-02-13T00:51:01;97438.91;;;5.32;71.72
73383;BME280;61600;48.126;11.542;2023-02-13T00:53:27;97443.28;;;5.20;71.80
73383;BME280;61600;48.126;11.542;2023-02-13T00:55:53;97434.97;;;5.28;72.06
73383;BME280;61600;48.126;11.542;2023-02-13T00:58:19;97441.63;;;5.19;71.47
73383;BME280;61600;48.126;11.542;2023-02-13T01:00:46;97441.41;;;5.27;71.86
73383;BME280;61600;48.126;11.542;2023-02-13T01:03:15;97440.34;;;5.22;71.64
73383;BME280;61600;48.126;11.542;2023-02-13T01:05:42;97440.56;;;5.33;72.66
73383;BME280;61600;48.126;11.542;2023-02-13T01:08:09;97434.16;;;5.34;71.24
73383;BME280;61600;48.126;11.542;2023-02-13T01:10:39;97432.28;;;5.22;71.42
73383;BME280;61600;48.126;11.542;2023-02-13T01:13:06;97433.31;;;5.27;72.32
73383;BME280;61600;48.126;11.542;2023-02-13T01:15:32;97436.03;;;5.27;72.19
73383;BME280;61600;48.126;11.542;2023-02-13T01:17:58;97433.72;;;5.24;72.94
73383;BME280;61600;48.126;11.542;2023-02-13T01:20:27;97439.53;;;5.28;73.54
73383;BME280;61600;48.126;11.542;2023-02-13T01:22:53;97436.03;;;5.27;72.88
73383;BME280;61600;48.126;11.542;2023-02-13T01:25:19;97428.13;;;5.32;72.97
73383;BME280;61600;48.126;11.542;2023-02-13T01:27:45;97426.69;;;5.23;72.60
73383;BME280;61600;48.126;11.542;2023-02-13T01:30:12;97430.81;;;5.26;72.12
73383;BME280;61600;48.126;11.542;2023-02-13T01:32:40;97425.00;;;5.35;72.17
73383;BME280;61600;48.126;11.542;2023-02-13T01:35:07;97427.50;;;5.37;72.85
73383;BME280;61600;48.126;11.542;2023-02-13T01:37:33;97438.91;;;5.19;72.58
73383;BME280;61600;48.126;11.542;2023-02-13T01:39:58;97433.09;;;5.29;72.20
73383;BME280;61600;48.126;11.542;2023-02-13T01:42:26;97432.91;;;5.30;72.08
73383;BME280;61600;48.126;11.542;2023-02-13T01:44:53;97426.66;;;5.43;72.67
73383;BME280;61600;48.126;11.542;2023-02-13T01:52:37;97427.09;;;5.27;72.06
73383;BME280;61600;48.126;11.542;2023-02-13T01:55:05;97435.59;;;5.30;72.09
73383;BME280;61600;48.126;11.542;2023-02-13T01:57:55;97424.81;;;5.17;72.69
73383;BME280;61600;48.126;11.542;2023-02-13T02:00:22;97428.94;;;5.33;73.00
73383;BME280;61600;48.126;11.542;2023-02-13T02:02:56;97428.75;;;5.34;72.26
73383;BME280;61600;48.126;11.542;2023-02-13T02:05:26;97428.53;;;5.29;72.37
73383;BME280;61600;48.126;11.542;2023-02-13T02:07:54;97433.72;;;5.24;72.98
73383;BME280;61600;48.126;11.542;2023-02-13T02:10:22;97428.75;;;5.21;72.50
73383;BME280;61600;48.126;11.542;2023-02-13T02:12:59;97435.81;;;5.22;72.62
73383;BME280;61600;48.126;11.542;2023-02-13T02:15:27;97434.56;;;5.18;73.46
73383;BME280;61600;48.126;11.542;2023-02-13T02:17:53;97441.00;;;5.30;73.36
73383;BME280;61600;48.126;11.542;2023-02-13T02:29:23;97446.19;;;5.12;72.81
73383;BME280;61600;48.126;11.542;2023-02-13T02:35:57;97436.84;;;5.08;72.32
73383;BME280;61600;48.126;11.542;2023-02-13T02:38:25;97442.84;;;5.30;72.21
73383;BME280;61600;48.126;11.542;2023-02-13T02:41:13;97438.69;;;5.21;72.18
73383;BME280;61600;48.126;11.542;2023-02-13T02:49:40;97446.78;;;5.21;71.92
73383;BME280;61600;48.126;11.542;2023-02-13T02:52:56;97436.22;;;5.19;72.00
73383;BME280;61600;48.126;11.542;2023-02-13T03:01:17;97445.75;;;5.22;71.49
73383;BME280;61600;48.126;11.542;2023-02-13T03:04:22;97442.66;;;5.18;71.24
73383;BME280;61600;48.126;11.542;2023-02-13T03:07:10;97444.09;;;5.21;71.06
73383;BME280;61600;48.126;11.542;2023-02-13T03:09:44;97435.19;;;5.27;70.52
73383;BME280;61600;48.126;11.542;2023-02-13T03:12:36;97440.78;;;5.19;70.68
73383;BME280;61600;48.126;11.542;2023-02-13T03:15:24;97436.63;;;5.03;69.50
73383;BME280;61600;48.126;11.542;2023-02-13T03:17:51;97443.69;;;5.17;70.37
73383;BME280;61600;48.126;11.542;2023-02-13T03:20:44;97443.69;;;5.17;70.94
73383;BME280;61600;48.126;11.542;2023-02-13T03:23:38;97436.41;;;5.18;70.35
73383;BME280;61600;48.126;11.542;2023-02-13T03:32:00;97442.41;;;4.87;72.21
73383;BME280;61600;48.126;11.542;2023-02-13T03:34:33;97434.97;;;5.09;71.02
73383;BME280;61600;48.126;11.542;2023-02-13T03:37:27;97446.59;;;5.16;71.46
73383;BME280;61600;48.126;11.542;2023-02-13T03:42:52;97451.16;;;5.28;71.17
73383;BME280;61600;48.126;11.542;2023-02-13T03:45:22;97449.28;;;5.35;70.49
73383;BME280;61600;48.126;11.542;2023-02-13T03:48:08;97459.88;;;5.43;69.89
73383;BME280;61600;48.126;11.542;2023-02-13T03:50:57;97454.06;;;5.46;68.36
73383;BME280;61600;48.126;11.542;2023-02-13T03:53:26;97450.75;;;5.44;69.66
73383;BME280;61600;48.126;11.542;2023-02-13T03:55:55;97448.69;;;5.14;69.80
73383;BME280;61600;48.126;11.542;2023-02-13T03:58:45;97457.56;;;5.21;69.73
73383;BME280;61600;48.126;11.542;2023-02-13T04:01:31;97443.69;;;5.24;69.92
73383;BME280;61600;48.126;11.542;2023-02-13T04:04:08;97447.84;;;5.26;69.29
73383;BME280;61600;48.126;11.542;2023-02-13T04:06:52;97451.78;;;5.30;69.05
73383;BME280;61600;48.126;11.542;2023-02-13T04:09:22;97450.13;;;5.29;68.92
73383;BME280;61600;48.126;11.542;2023-02-13T04:12:39;97454.69;;;5.29;68.92
73383;BME280;61600;48.126;11.542;2023-02-13T04:15:09;97459.66;;;5.12;69.04
73383;BME280;61600;48.126;11.542;2023-02-13T04:17:44;97454.69;;;5.16;69.25
73383;BME280;61600;48.126;11.542;2023-02-13T04:20:13;97459.84;;;5.04;69.77
73383;BME280;61600;48.126;11.542;2023-02-13T04:22:47;97458.41;;;4.88;69.69
73383;BME280;61600;48.126;11.542;2023-02-13T04:25:15;97463.13;;;4.80;69.51
73383;BME280;61600;48.126;11.542;2023-02-13T04:27:41;97449.25;;;4.83;69.34
73383;BME280;61600;48.126;11.542;2023-02-13T04:30:08;97457.31;;;4.83;70.88
73383;BME280;61600;48.126;11.542;2023-02-13T04:32:34;97452.59;;;4.98;70.91
73383;BME280;61600;48.126;11.542;2023-02-13T04:35:00;97453.44;;;5.12;70.24
73383;BME280;61600;48.126;11.542;2023-02-13T04:37:26;97449.72;;;5.13;70.03
73383;BME280;61600;48.126;11.542;2023-02-13T04:39:51;97454.50;;;5.17;69.44
73383;BME280;61600;48.126;11.542;2023-02-13T04:42:17;97456.34;;;5.23;69.81
73383;BME280;61600;48.126;11.542;2023-02-13T04:44:43;97458.63;;;5.26;69.17
73383;BME280;61600;48.126;11.542;2023-02-13T04:47:08;97456.53;;;5.09;69.14
73383;BME280;61600;48.126;11.542;2023-02-13T04:49:34;97449.09;;;5.17;69.51
73383;BME280;61600;48.126;11.542;2023-02-13T04:52:00;97453.66;;;5.23;69.13
73383;BME280;61600;48.126;11.542;2023-02-13T04:54:26;97457.38;;;5.29;68.75
73383;BME280;61600;48.126;11.542;2023-02-13T04:56:51;97449.50;;;5.27;68.91
73383;BME280;61600;48.126;11.542;2023-02-13T04:59:18;97457.19;;;5.30;69.14
73383;BME280;61600;48.126;11.542;2023-02-13T05:01:44;97451.38;;;5.40;68.94
73383;BME280;61600;48.126;11.542;2023-02-13T05:04:09;97455.50;;;5.49;68.56
73383;BME280;61600;48.126;11.542;2023-02-13T05:06:40;97453.03;;;5.41;68.51
73383;BME280;61600;48.126;11.542;2023-02-13T05:09:06;97451.56;;;5.32;68.58
73383;BME280;61600;48.126;11.542;2023-02-13T05:11:32;97453.25;;;5.07;69.38
73383;BME280;61600;48.126;11.542;2023-02-13T05:13:58;97456.97;;;5.12;68.09
73383;BME280;61600;48.126;11.542;2023-02-13T05:16:24;97454.63;;;4.70;69.36
73383;BME280;61600;48.126;11.542;2023-02-13T05:18:50;97466.91;;;4.92;69.50
73383;BME280;61600;48.126;11.542;2023-02-13T05:21:22;97459.66;;;4.92;69.71
73383;BME280;61600;48.126;11.542;2023-02-13T05:24:06;97458.19;;;4.96;69.75
73383;BME280;61600;48.126;11.542;2023-02-13T05:26:32;97461.53;;;5.05;68.99
73383;BME280;61600;48.126;11.542;2023-02-13T05:28:58;97458.63;;;5.13;68.84
73383;BME280;61600;48.126;11.542;2023-02-13T05:31:42;97461.25;;;4.61;68.16
73383;BME280;61600;48.126;11.542;2023-02-13T05:34:08;97464.94;;;4.53;70.39
73383;BME280;61600;48.126;11.542;2023-02-13T05:36:33;97466.91;;;4.85;70.49
73383;BME280;61600;48.126;11.542;2023-02-13T05:38:59;97471.22;;;4.73;70.46
73383;BME280;61600;48.126;11.542;2023-02-13T05:41:25;97465.66;;;4.88;70.25
73383;BME280;61600;48.126;11.542;2023-02-13T05:43:51;97463.31;;;4.72;69.96
73383;BME280;61600;48.126;11.542;2023-02-13T05:46:17;97471.22;;;4.86;69.58
73383;BME280;61600;48.126;11.542;2023-02-13T05:48:43;97478.88;;;4.76;69.64
73383;BME280;61600;48.126;11.542;2023-02-13T05:51:08;97467.50;;;4.74;70.08
73383;BME280;61600;48.126;11.542;2023-02-13T05:53:35;97478.03;;;4.76;69.75
73383;BME280;61600;48.126;11.542;2023-02-13T05:56:04;97479.09;;;4.75;69.23
73383;BME280;61600;48.126;11.542;2023-02-13T05:58:31;97483.41;;;4.63;70.05
73383;BME280;61600;48.126;11.542;2023-02-13T06:00:57;97480.31;;;4.66;70.01
73383;BME280;61600;48.126;11.542;2023-02-13T06:03:25;97484.03;;;4.11;71.28
73383;BME280;61600;48.126;11.542;2023-02-13T06:05:54;97482.69;;;4.34;71.18
73383;BME280;61600;48.126;11.542;2023-02-13T06:08:21;97483.22;;;4.64;71.06
73383;BME280;61600;48.126;11.542;2023-02-13T06:10:48;97490.09;;;4.80;69.91
73383;BME280;61600;48.126;11.542;2023-02-13T06:13:14;97494.06;;;4.90;69.18
73383;BME280;61600;48.126;11.542;2023-02-13T06:15:40;97489.31;;;4.99;69.40
73383;BME280;61600;48.126;11.542;2023-02-13T06:18:07;97484.75;;;5.06;68.67
73383;BME280;61600;48.126;11.542;2023-02-13T06:20:33;97491.19;;;5.12;68.40
73383;BME280;61600;48.126;11.542;2023-02-13T06:22:59;97492.63;;;5.21;67.90
73383;BME280;61600;48.126;11.542;2023-02-13T06:25:25;97492.88;;;5.26;67.93
73383;BME280;61600;48.126;11.542;2023-02-13T06:27:55;97493.47;;;5.15;68.30
73383;BME280;61600;48.126;11.542;2023-02-13T06:30:21;97501.78;;;5.13;68.44
73383;BME280;61600;48.126;11.542;2023-02-13T06:32:47;97508.63;;;5.02;68.56
73383;BME280;61600;48.126;11.542;2023-02-13T06:35:15;97505.94;;;5.16;68.17
73383;BME280;61600;48.126;11.542;2023-02-13T06:37:47;97506.75;;;5.16;67.86
73383;BME280;61600;48.126;11.542;2023-02-13T06:40:15;97507.59;;;5.17;66.63
73383;BME280;61600;48.126;11.542;2023-02-13T06:42:44;97505.75;;;5.30;67.76
73383;BME280;61600;48.126;11.542;2023-02-13T06:45:12;97507.00;;;5.34;67.61
73383;BME280;61600;48.126;11.542;2023-02-13T06:47:44;97513.19;;;5.28;66.48
73383;BME280;61600;48.126;11.542;2023-02-13T06:50:14;97511.97;;;5.37;67.77
73383;BME280;61600;48.126;11.542;2023-02-13T06:52:46;97511.34;;;5.35;67.34
73383;BME280;61600;48.126;11.542;2023-02-13T06:55:12;97508.03;;;5.33;67.59
73383;BME280;61600;48.126;11.542;2023-02-13T06:57:42;97503.03;;;5.30;67.37
73383;BME280;61600;48.126;11.542;2023-02-13T07:00:19;97507.59;;;5.36;67.05
73383;BME280;61600;48.126;11.542;2023-02-13T07:02:47;97513.84;;;5.43;67.09
73383;BME280;61600;48.126;11.542;2023-02-13T07:05:15;97518.41;;;5.49;66.93
73383;BME280;61600;48.126;11.542;2023-02-13T07:07:41;97522.97;;;5.29;67.21
73383;BME280;61600;48.126;11.542;2023-02-13T07:10:12;97515.69;;;5.30;66.83
73383;BME280;61600;48.126;11.542;2023-02-13T07:12:39;97526.00;;;4.93;68.07
73383;BME280;61600;48.126;11.542;2023-02-13T07:15:07;97529.97;;;5.11;67.92
73383;BME280;61600;48.126;11.542;2023-02-13T07:17:33;97530.75;;;4.78;68.44
73383;BME280;61600;48.126;11.542;2023-02-13T07:20:00;97538.88;;;4.91;68.85
73383;BME280;61600;48.126;11.542;2023-02-13T07:22:31;97529.94;;;4.91;69.25
73383;BME280;61600;48.126;11.542;2023-02-13T07:24:58;97538.47;;;5.01;68.86
73383;BME280;61600;48.126;11.542;2023-02-13T07:27:26;97541.13;;;4.81;69.44
73383;BME280;61600;48.126;11.542;2023-02-13T07:29:55;97539.28;;;4.95;69.10
73383;BME280;61600;48.126;11.542;2023-02-13T07:32:25;97539.63;;;4.72;69.41
73383;BME280;61600;48.126;11.542;2023-02-13T07:34:51;97545.84;;;4.73;67.92
73383;BME280;61600;48.126;11.542;2023-02-13T07:37:17;97549.91;;;5.03;68.92
73383;BME280;61600;48.126;11.542;2023-02-13T07:39:50;97548.44;;;5.07;68.92
73383;BME280;61600;48.126;11.542;2023-02-13T07:42:18;97556.75;;;5.06;68.48
73383;BME280;61600;48.126;11.542;2023-02-13T07:44:47;97554.66;;;5.14;68.64
73383;BME280;61600;48.126;11.542;2023-02-13T07:47:14;97558.84;;;5.10;68.31
73383;BME280;61600;48.126;11.542;2023-02-13T07:49:41;97551.53;;;4.97;68.67
73383;BME280;61600;48.126;11.542;2023-02-13T07:52:08;97561.69;;;4.95;69.09
73383;BME280;61600;48.126;11.542;2023-02-13T07:54:36;97570.56;;;4.89;69.59
73383;BME280;61600;48.126;11.542;2023-02-13T07:57:13;97568.97;;;5.01;69.32
73383;BME280;61600;48.126;11.542;2023-02-13T07:59:39;97576.16;;;4.81;69.07
73383;BME280;61600;48.126;11.542;2023-02-13T08:02:07;97576.50;;;4.72;70.24
73383;BME280;61600;48.126;11.542;2023-02-13T08:04:41;97577.44;;;4.85;70.68
73383;BME280;61600;48.126;11.542;2023-02-13T08:07:13;97575.09;;;4.76;69.86
73383;BME280;61600;48.126;11.542;2023-02-13T08:09:40;97572.91;;;4.99;69.24
73383;BME280;61600;48.126;11.542;2023-02-13T08:12:31;97574.78;;;5.12;68.91
73383;BME280;61600;48.126;11.542;2023-02-13T08:15:00;97574.22;;;5.36;67.89
73383;BME280;61600;48.126;11.542;2023-02-13T08:17:27;97570.09;;;5.46;67.37
73383;BME280;61600;48.126;11.542;2023-02-13T08:19:53;97568.66;;;5.44;67.90
73383;BME280;61600;48.126;11.542;2023-02-13T08:22:20;97571.56;;;5.62;67.58
73383;BME280;61600;48.126;11.542;2023-02-13T08:24:48;97569.47;;;5.71;66.93
73383;BME280;61600;48.126;11.542;2023-02-13T08:27:14;97562.84;;;5.80;66.73
73383;BME280;61600;48.126;11.542;2023-02-13T08:29:41;97574.88;;;5.77;66.72
73383;BME280;61600;48.126;11.542;2023-02-13T08:32:08;97558.69;;;5.71;66.98
73383;BME280;61600;48.126;11.542;2023-02-13T08:34:35;97562.22;;;5.65;66.74
73383;BME280;61600;48.126;11.542;2023-02-13T08:37:02;97567.00;;;5.63;67.24
73383;BME280;61600;48.126;11.542;2023-02-13T08:39:29;97559.31;;;5.79;66.69
73383;BME280;61600;48.126;11.542;2023-02-13T08:41:57;97554.13;;;5.78;66.16
73383;BME280;61600;48.126;11.542;2023-02-13T08:44:23;97555.78;;;5.72;66.39
73383;BME280;61600;48.126;11.542;2023-02-13T08:46:49;97560.59;;;5.90;65.75
73383;BME280;61600;48.126;11.542;2023-02-13T08:49:15;97561.19;;;5.92;65.82
73383;BME280;61600;48.126;11.542;2023-02-13T08:51:41;97556.63;;;5.92;66.01
73383;BME280;61600;48.126;11.542;2023-02-13T08:54:07;97564.53;;;5.94;65.69
73383;BME280;61600;48.126;11.542;2023-02-13T08:56:33;97567.00;;;6.02;65.48
73383;BME280;61600;48.126;11.542;2023-02-13T08:58:59;97563.69;;;5.80;63.87
73383;BME280;61600;48.126;11.542;2023-02-13T09:01:25;97575.31;;;5.74;65.41
73383;BME280;61600;48.126;11.542;2023-02-13T09:03:51;97569.72;;;6.02;65.77
73383;BME280;61600;48.126;11.542;2023-02-13T09:06:17;97564.75;;;6.12;65.39
73383;BME280;61600;48.126;11.542;2023-02-13T09:08:43;97572.03;;;6.05;65.34
73383;BME280;61600;48.126;11.542;2023-02-13T09:11:09;97573.47;;;6.08;65.31
73383;BME280;61600;48.126;11.542;2023-02-13T09:13:35;97583.84;;;6.17;64.75
73383;BME280;61600;48.126;11.542;2023-02-13T09:16:05;97582.81;;;5.98;64.19
73383;BME280;61600;48.126;11.542;2023-02-13T09:18:32;97585.31;;;5.93;65.95
73383;BME280;61600;48.126;11.542;2023-02-13T09:21:03;97580.72;;;6.20;64.40
73383;BME280;61600;48.126;11.542;2023-02-13T09:23:32;97585.09;;;6.21;64.30
73383;BME280;61600;48.126;11.542;2023-02-13T09:26:00;97582.56;;;6.20;64.46
73383;BME280;61600;48.126;11.542;2023-02-13T09:28:28;97589.88;;;6.19;63.95
73383;BME280;61600;48.126;11.542;2023-02-13T09:30:54;97589.63;;;6.27;63.88
73383;BME280;61600;48.126;11.542;2023-02-13T09:33:20;97582.16;;;6.23;63.87
73383;BME280;61600;48.126;11.542;2023-02-13T09:35:45;97588.59;;;6.28;63.84
73383;BME280;61600;48.126;11.542;2023-02-13T09:38:11;97576.50;;;6.37;63.56
73383;BME280;61600;48.126;11.542;2023-02-13T09:45:39;97583.63;;;5.66;64.73
73383;BME280;61600;48.126;11.542;2023-02-13T09:48:17;97583.63;;;5.73;64.64
73383;BME280;61600;48.126;11.542;2023-02-13T09:50:47;97583.88;;;5.91;64.97
73383;BME280;61600;48.126;11.542;2023-02-13T09:53:21;97588.44;;;5.90;65.06
73383;BME280;61600;48.126;11.542;2023-02-13T09:56:15;97579.47;;;5.83;64.85
73383;BME280;61600;48.126;11.542;2023-02-13T09:58:50;97586.97;;;6.08;64.36
73383;BME280;61600;48.126;11.542;2023-02-13T10:01:28;97588.19;;;6.18;65.39
73383;BME280;61600;48.126;11.542;2023-02-13T10:04:31;97582.75;;;6.38;64.21
73383;BME280;61600;48.126;11.542;2023-02-13T10:07:14;97590.81;;;6.51;63.59
73383;BME280;61600;48.126;11.542;2023-02-13T10:15:51;97588.94;;;6.58;62.64
73383;BME280;61600;48.126;11.542;2023-02-13T10:18:20;97590.19;;;6.56;61.94
73383;BME280;61600;48.126;11.542;2023-02-13T10:20:50;97581.47;;;6.53;62.56
73383;BME280;61600;48.126;11.542;2023-02-13T10:23:26;97594.41;;;6.32;62.99
73383;BME280;61600;48.126;11.542;2023-02-13T10:25:59;97586.72;;;6.35;62.99
73383;BME280;61600;48.126;11.542;2023-02-13T10:28:47;97589.63;;;6.27;63.04
73383;BME280;61600;48.126;11.542;2023-02-13T10:31:35;97586.56;;;5.97;64.42
73383;BME280;61600;48.126;11.542;2023-02-13T10:34:02;97584.66;;;5.85;64.48
73383;BME280;61600;48.126;11.542;2023-02-13T10:36:33;97584.47;;;5.93;64.08
73383;BME280;61600;48.126;11.542;2023-02-13T10:41:54;97576.13;;;6.21;63.47
73383;BME280;61600;48.126;11.542;2023-02-13T10:50:52;97571.97;;;6.31;62.95
73383;BME280;61600;48.126;11.542;2023-02-13T10:53:45;97565.47;;;6.52;63.20
73383;BME280;61600;48.126;11.542;2023-02-13T10:56:36;97577.78;;;6.28;62.77
73383;BME280;61600;48.126;11.542;2023-02-13T10:59:14;97563.66;;;6.33;63.17
73383;BME280;61600;48.126;11.542;2023-02-13T11:01:46;97560.28;;;6.50;63.06
73383;BME280;61600;48.126;11.542;2023-02-13T11:04:16;97554.44;;;6.60;62.37
73383;BME280;61600;48.126;11.542;2023-02-13T11:07:00;97552.34;;;6.56;62.39
73383;BME280;61600;48.126;11.542;2023-02-13T11:09:28;97561.53;;;6.48;63.10
73383;BME280;61600;48.126;11.542;2023-02-13T11:11:55;97558.41;;;6.58;62.84
73383;BME280;61600;48.126;11.542;2023-02-13T11:14:23;97553.91;;;6.83;61.96
73383;BME280;61600;48.126;11.542;2023-02-13T11:17:22;97551.88;;;6.78;61.85
73383;BME280;61600;48.126;11.542;2023-02-13T11:19:52;97547.28;;;6.72;62.35
73383;BME280;61600;48.126;11.542;2023-02-13T11:22:33;97544.19;;;6.69;61.95
73383;BME280;61600;48.126;11.542;2023-02-13T11:25:06;97539.50;;;6.38;62.54
73383;BME280;61600;48.126;11.542;2023-02-13T11:27:36;97535.28;;;6.68;62.23
73383;BME280;61600;48.126;11.542;2023-02-13T11:30:06;97545.19;;;6.81;61.46
73383;BME280;61600;48.126;11.542;2023-02-13T11:32:36;97539.19;;;6.72;61.94
73383;BME280;61600;48.126;11.542;2023-02-13T11:35:28;97533.00;;;6.59;62.51
73383;BME280;61600;48.126;11.542;2023-02-13T11:40:41;97536.97;;;6.56;62.94
73383;BME280;61600;48.126;11.542;2023-02-13T11:43:23;97533.16;;;6.70;62.45
73383;BME280;61600;48.126;11.542;2023-02-13T11:46:23;97543.53;;;6.80;61.94
73383;BME280;61600;48.126;11.542;2023-02-13T11:49:02;97539.81;;;6.74;62.06
73383;BME280;61600;48.126;11.542;2023-02-13T11:51:42;97538.59;;;6.64;62.50
73383;BME280;61600;48.126;11.542;2023-02-13T11:54:41;97548.94;;;6.80;61.92
73383;BME280;61600;48.126;11.542;2023-02-13T11:57:29;97537.84;;;6.94;61.71
73383;BME280;61600;48.126;11.542;2023-02-13T11:59:55;97542.72;;;6.73;62.22
73383;BME280;61600;48.126;11.542;2023-02-13T12:02:24;97542.38;;;7.00;60.39
73383;BME280;61600;48.126;11.542;2023-02-13T12:04:53;97549.22;;;7.10;60.80
73383;BME280;61600;48.126;11.542;2023-02-13T12:07:28;97538.09;;;7.24;61.01
73383;BME280;61600;48.126;11.542;2023-02-13T12:09:59;97539.38;;;6.77;61.84
73383;BME280;61600;48.126;11.542;2023-02-13T12:12:37;97544.09;;;6.95;61.64
73383;BME280;61600;48.126;11.542;2023-02-13T12:15:17;97538.78;;;6.69;62.36
73383;BME280;61600;48.126;11.542;2023-02-13T12:17:46;97539.78;;;7.19;61.86
73383;BME280;61600;48.126;11.542;2023-02-13T12:20:16;97532.41;;;7.32;59.95
73383;BME280;61600;48.126;11.542;2023-02-13T12:23:16;97538.00;;;7.06;60.59
73383;BME280;61600;48.126;11.542;2023-02-13T12:25:57;97530.84;;;7.18;61.59
73383;BME280;61600;48.126;11.542;2023-02-13T12:29:11;97517.91;;;7.51;60.85
73383;BME280;61600;48.126;11.542;2023-02-13T12:32:00;97521.44;;;7.27;60.81
73383;BME280;61600;48.126;11.542;2023-02-13T12:58:34;97487.47;;;7.81;59.12
73383;BME280;61600;48.126;11.542;2023-02-13T13:01:31;97487.91;;;7.78;58.33
73383;BME280;61600;48.126;11.542;2023-02-13T13:22:55;97492.94;;;7.74;59.77
73383;BME280;61600;48.126;11.542;2023-02-13T13:25:33;97493.38;;;7.71;59.80
73383;BME280;61600;48.126;11.542;2023-02-13T13:28:31;97493.75;;;7.75;59.64
73383;BME280;61600;48.126;11.542;2023-02-13T13:30:58;97493.69;;;7.57;59.92
73383;BME280;61600;48.126;11.542;2023-02-13T13:33:25;97495.09;;;7.66;59.86
73383;BME280;61600;48.126;11.542;2023-02-13T13:41:40;97497.91;;;7.28;60.21
73383;BME280;61600;48.126;11.542;2023-02-13T13:47:23;97491.34;;;7.67;60.13
73383;BME280;61600;48.126;11.542;2023-02-13T13:49:56;97499.03;;;7.70;60.13
73383;BME280;61600;48.126;11.542;2023-02-13T13:52:27;97507.41;;;7.62;59.81
73383;BME280;61600;48.126;11.542;2023-02-13T13:54:55;97507.69;;;7.78;59.18
73383;BME280;61600;48.126;11.542;2023-02-13T14:07:58;97492.66;;;7.58;58.89
73383;BME280;61600;48.126;11.542;2023-02-13T14:20:41;97491.56;;;7.40;60.05
73383;BME280;61600;48.126;11.542;2023-02-13T14:25:43;97487.41;;;7.63;60.34
73383;BME280;61600;48.126;11.542;2023-02-13T14:28:21;97486.25;;;7.77;59.58
73383;BME280;61600;48.126;11.542;2023-02-13T14:30:49;97482.38;;;7.91;59.28
73383;BME280;61600;48.126;11.542;2023-02-13T14:33:26;97477.06;;;7.78;59.63
73383;BME280;61600;48.126;11.542;2023-02-13T14:36:08;97484.78;;;7.56;59.34
73383;BME280;61600;48.126;11.542;2023-02-13T14:38:43;97478.13;;;7.52;59.58
73383;BME280;61600;48.126;11.542;2023-02-13T14:44:20;97481.38;;;7.36;60.35
73383;BME280;61600;48.126;11.542;2023-02-13T14:46:49;97485.78;;;7.30;59.89
73383;BME280;61600;48.126;11.542;2023-02-13T14:52:00;97487.41;;;7.38;59.47
73383;BME280;61600;48.126;11.542;2023-02-13T14:54:54;97485.25;;;6.84;61.25
73383;BME280;61600;48.126;11.542;2023-02-13T14:57:37;97482.13;;;7.18;60.75
73383;BME280;61600;48.126;11.542;2023-02-13T15:00:13;97478.03;;;7.09;60.24
73383;BME280;61600;48.126;11.542;2023-02-13T15:02:51;97476.47;;;7.26;61.13
73383;BME280;61600;48.126;11.542;2023-02-13T15:05:20;97481.28;;;7.24;60.79
73383;BME280;61600;48.126;11.542;2023-02-13T15:07:53;97472.31;;;7.24;61.40
73383;BME280;61600;48.126;11.542;2023-02-13T15:12:59;97483.25;;;7.35;61.07
73383;BME280;61600;48.126;11.542;2023-02-13T15:15:27;97475.31;;;7.40;60.28
73383;BME280;61600;48.126;11.542;2023-02-13T15:18:09;97474.66;;;7.45;59.46
73383;BME280;61600;48.126;11.542;2023-02-13T15:20:39;97477.38;;;7.45;60.68
73383;BME280;61600;48.126;11.542;2023-02-13T15:23:07;97478.66;;;7.61;59.68
73383;BME280;61600;48.126;11.542;2023-02-13T15:25:41;97480.78;;;7.34;59.75
73383;BME280;61600;48.126;11.542;2023-02-13T15:28:17;97482.44;;;7.35;60.94
73383;BME280;61600;48.126;11.542;2023-02-13T15:30:59;97481.22;;;6.55;62.00
73383;BME280;61600;48.126;11.542;2023-02-13T15:33:31;97480.63;;;6.53;62.15
73383;BME280;61600;48.126;11.542;2023-02-13T15:36:03;97483.66;;;6.70;63.18
73383;BME280;61600;48.126;11.542;2023-02-13T15:38:32;97482.78;;;6.76;62.56
73383;BME280;61600;48.126;11.542;2023-02-13T15:41:10;97471.78;;;6.77;62.59
73383;BME280;61600;48.126;11.542;2023-02-13T15:43:42;97472.81;;;6.76;62.94
73383;BME280;61600;48.126;11.542;2023-02-13T15:46:26;97465.88;;;6.87;62.37
73383;BME280;61600;48.126;11.542;2023-02-13T15:48:57;97462.34;;;6.86;62.50
73383;BME280;61600;48.126;11.542;2023-02-13T15:51:26;97465.13;;;6.73;62.49